ADDS METAR Data INFO
IDs: Format: Raw Decoded Include TAF

Data at: 2117 UTC 20 Nov 2017

KDRT 202053Z AUTO 14010KT 10SM CLR 20/03 A3000 RMK AO2 SLP152 T02000028 56041
KDRT 201953Z AUTO 15012G19KT 10SM CLR 19/03 A3003 RMK AO2 SLP162 T01940028
KDRT 201853Z AUTO 15013KT 10SM CLR 19/02 A3008 RMK AO2 SLP179 T01890017
KDRT 201753Z AUTO 17012G19KT 10SM CLR 17/01 A3013 RMK AO2 SLP195 T01720011 10178 20050 58017
KDRT 201653Z AUTO 14011KT 10SM CLR 15/02 A3016 RMK AO2 SLP208 T01500022
KDRT 201553Z AUTO 13008KT 10SM CLR 13/02 A3018 RMK AO2 SLP214 T01280017
KDRT 201453Z AUTO 12006KT 10SM CLR 09/01 A3018 RMK AO2 SLP215 T00940011 51015
KDRT 201353Z AUTO 00000KT 10SM CLR 06/01 A3017 RMK AO2 SLP212 T00610006 $
KDRT 201253Z AUTO 09004KT 10SM CLR 05/00 A3014 RMK AO2 SLP203 T00500000 $
KDRT 201153Z AUTO 09006KT 10SM CLR 06/00 A3013 RMK AO2 SLP199 T00560000 10089 20056 58010 $
KDRT 201053Z AUTO 09006KT 10SM CLR 07/00 A3014 RMK AO2 SLP200 T00670000 $
KDRT 200953Z AUTO 09004KT 10SM CLR 06/00 A3016 RMK AO2 SLP208 T00610000 $
KDRT 200853Z AUTO 07004KT 10SM CLR 07/00 A3016 RMK AO2 SLP208 T00720000 56008 $
KDRT 200753Z AUTO 05004KT 10SM CLR 08/01 A3017 RMK AO2 SLP212 T00780006 $
KDRT 200653Z AUTO 00000KT 10SM CLR 07/02 A3018 RMK AO2 SLP213 T00720022 $
KDRT 200553Z AUTO 09005KT 10SM CLR 09/01 A3019 RMK AO2 SLP218 T00890011 10139 20083 401780017 58006 $
KDRT 200453Z AUTO 12003KT 10SM CLR 09/01 A3020 RMK AO2 SLP220 T00940006 $
KDRT 200353Z AUTO 11004KT 10SM CLR 10/00 A3020 RMK AO2 SLP222 T01000000 $
KDRT 200253Z AUTO 12005KT 10SM CLR 11/00 A3021 RMK AO2 SLP225 T01110000 50000 $
KDRT 200153Z AUTO 13004KT 10SM CLR 12/00 A3022 RMK AO2 SLP230 T01220000 $
KDRT 200053Z AUTO 12003KT 10SM CLR 13/M01 A3021 RMK AO2 SLP227 T01331011 $
KDRT 192353Z AUTO 17004KT 10SM CLR 14/M02 A3021 RMK AO2 SLP225 T01441017 10178 20144 56010 $
KDRT 192253Z AUTO 15007KT 10SM CLR 16/M03 A3021 RMK AO2 SLP226 T01561033 $
KDRT 192153Z AUTO 16005KT 10SM CLR 16/M05 A3022 RMK AO2 SLP229 T01611050 $
KDRT 192053Z AUTO 14007KT 10SM CLR 17/M03 A3024 RMK AO2 SLP233 T01721033 56041 $
KDRT 191953Z AUTO 18005KT 10SM CLR 16/M04 A3027 RMK AO2 SLP246 T01611044 $
KDRT 191853Z AUTO 00000KT 10SM CLR 15/M03 A3032 RMK AO2 SLP261 T01501033 $
KDRT 191753Z AUTO 13006KT 10SM CLR 14/M04 A3036 RMK AO2 SLP276 T01441039 10156 20017 58020 $
KDRT 191653Z AUTO VRB05KT 10SM CLR 14/M01 A3041 RMK AO2 SLP289 T01441011 $
KDRT 191553Z AUTO 00000KT 10SM CLR 13/01 A3043 RMK AO2 SLP299 T01280011 $
KDRT 191453Z AUTO 00000KT 10SM CLR 09/03 A3043 RMK AO2 SLP297 T00890028 53019 $
KDRT 191353Z AUTO 00000KT 10SM CLR 05/02 A3041 RMK AO2 SLP293 T00500017 $
KDRT 191253Z AUTO 00000KT 10SM CLR 04/01 A3039 RMK AO2 SLP284 T00390011 $
KDRT 191153Z AUTO 00000KT 10SM CLR 04/01 A3037 RMK AO2 SLP277 T00390011 10128 20039 53007 $
KDRT 191053Z AUTO 02004KT 10SM CLR 08/02 A3035 RMK AO2 SLP271 T00780022 $
KDRT 190953Z AUTO 33005KT 10SM CLR 08/02 A3035 RMK AO2 SLP270 T00780017 $